sensor_id;sensor_type;location;lat;lon;timestamp;pressure;altitude;pressure_sealevel;temperature;humidity
36692;BME280;22678;52.052;4.242;2023-02-19T00:01:21;101876.75;;;9.35;100.00
36692;BME280;22678;52.052;4.242;2023-02-19T00:03:52;101859.03;;;9.18;100.00
36692;BME280;22678;52.052;4.242;2023-02-19T00:06:19;101872.28;;;9.27;100.00
36692;BME280;22678;52.052;4.242;2023-02-19T00:08:44;101855.56;;;9.19;100.00
36692;BME280;22678;52.052;4.242;2023-02-19T00:11:12;101869.66;;;9.27;100.00
36692;BME280;22678;52.052;4.242;2023-02-19T00:13:43;101867.97;;;9.29;100.00
36692;BME280;22678;52.052;4.242;2023-02-19T00:16:23;101873.16;;;9.26;100.00
36692;BME280;22678;52.052;4.242;2023-02-19T00:18:49;101877.50;;;9.26;100.00
36692;BME280;22678;52.052;4.242;2023-02-19T00:21:16;101839.59;;;9.04;100.00
36692;BME280;22678;52.052;4.242;2023-02-19T00:23:42;101857.22;;;9.14;100.00
36692;BME280;22678;52.052;4.242;2023-02-19T00:26:11;101888.91;;;9.26;100.00
36692;BME280;22678;52.052;4.242;2023-02-19T00:28:37;101883.59;;;9.22;100.00
36692;BME280;22678;52.052;4.242;2023-02-19T00:33:56;101897.56;;;9.19;100.00
36692;BME280;22678;52.052;4.242;2023-02-19T00:36:22;101857.13;;;9.06;100.00
36692;BME280;22678;52.052;4.242;2023-02-19T00:38:49;101889.66;;;9.18;100.00
36692;BME280;22678;52.052;4.242;2023-02-19T00:41:16;101905.34;;;9.13;100.00
36692;BME280;22678;52.052;4.242;2023-02-19T00:43:46;101897.44;;;9.10;100.00
36692;BME280;22678;52.052;4.242;2023-02-19T00:46:11;101908.03;;;9.16;100.00
36692;BME280;22678;52.052;4.242;2023-02-19T00:48:37;101899.19;;;9.11;100.00
36692;BME280;22678;52.052;4.242;2023-02-19T00:51:03;101874.56;;;9.01;100.00
36692;BME280;22678;52.052;4.242;2023-02-19T00:53:28;101912.53;;;9.25;100.00
36692;BME280;22678;52.052;4.242;2023-02-19T00:55:53;101900.13;;;9.15;100.00
36692;BME280;22678;52.052;4.242;2023-02-19T00:58:19;101910.69;;;9.19;100.00
36692;BME280;22678;52.052;4.242;2023-02-19T01:00:44;101908.06;;;9.19;100.00
36692;BME280;22678;52.052;4.242;2023-02-19T01:03:09;101886.97;;;9.11;100.00
36692;BME280;22678;52.052;4.242;2023-02-19T01:05:34;101903.63;;;9.15;100.00
36692;BME280;22678;52.052;4.242;2023-02-19T01:08:00;101895.78;;;9.18;100.00
36692;BME280;22678;52.052;4.242;2023-02-19T01:10:25;101904.63;;;9.23;100.00
36692;BME280;22678;52.052;4.242;2023-02-19T01:12:50;101910.75;;;9.24;100.00
36692;BME280;22678;52.052;4.242;2023-02-19T01:15:16;101894.91;;;9.16;100.00
36692;BME280;22678;52.052;4.242;2023-02-19T01:17:41;101908.06;;;9.19;100.00
36692;BME280;22678;52.052;4.242;2023-02-19T01:20:07;101904.44;;;9.11;100.00
36692;BME280;22678;52.052;4.242;2023-02-19T01:22:32;101898.31;;;9.12;100.00
36692;BME280;22678;52.052;4.242;2023-02-19T01:24:57;101905.41;;;9.18;100.00
36692;BME280;22678;52.052;4.242;2023-02-19T01:27:23;101935.34;;;9.31;100.00
36692;BME280;22678;52.052;4.242;2023-02-19T01:29:48;101932.72;;;9.31;100.00
36692;BME280;22678;52.052;4.242;2023-02-19T01:32:13;101933.59;;;9.31;100.00
36692;BME280;22678;52.052;4.242;2023-02-19T01:34:39;101903.66;;;9.18;100.00
36692;BME280;22678;52.052;4.242;2023-02-19T01:37:04;101923.94;;;9.28;100.00
36692;BME280;22678;52.052;4.242;2023-02-19T01:39:32;101901.84;;;9.14;100.00
36692;BME280;22678;52.052;4.242;2023-02-19T01:41:57;101917.75;;;9.23;100.00
36692;BME280;22678;52.052;4.242;2023-02-19T01:46:47;101911.63;;;9.24;100.00
36692;BME280;22678;52.052;4.242;2023-02-19T01:49:59;101929.22;;;9.32;100.00
36692;BME280;22678;52.052;4.242;2023-02-19T01:54:50;101923.84;;;9.22;100.00
36692;BME280;22678;52.052;4.242;2023-02-19T01:57:25;101931.75;;;9.24;100.00
36692;BME280;22678;52.052;4.242;2023-02-19T01:59:56;101943.16;;;9.27;100.00
36692;BME280;22678;52.052;4.242;2023-02-19T02:02:23;101934.34;;;9.22;100.00
36692;BME280;22678;52.052;4.242;2023-02-19T02:04:51;101944.94;;;9.28;100.00
36692;BME280;22678;52.052;4.242;2023-02-19T02:07:17;101955.47;;;9.32;100.00
36692;BME280;22678;52.052;4.242;2023-02-19T02:10:01;101952.00;;;9.33;100.00
36692;BME280;22678;52.052;4.242;2023-02-19T02:12:52;101933.50;;;9.25;100.00
36692;BME280;22678;52.052;4.242;2023-02-19T02:15:22;101948.41;;;9.27;100.00
36692;BME280;22678;52.052;4.242;2023-02-19T02:18:21;101942.22;;;9.22;100.00
36692;BME280;22678;52.052;4.242;2023-02-19T02:21:02;101937.03;;;9.27;100.00
36692;BME280;22678;52.052;4.242;2023-02-19T02:24:01;101950.25;;;9.33;100.00
36692;BME280;22678;52.052;4.242;2023-02-19T02:26:54;101948.41;;;9.27;100.00
36692;BME280;22678;52.052;4.242;2023-02-19T02:32:10;101957.16;;;9.26;100.00
36692;BME280;22678;52.052;4.242;2023-02-19T02:34:48;101954.50;;;9.25;100.00
36692;BME280;22678;52.052;4.242;2023-02-19T02:37:16;101943.03;;;9.18;100.00
36692;BME280;22678;52.052;4.242;2023-02-19T02:39:44;101941.16;;;9.11;100.00
36692;BME280;22678;52.052;4.242;2023-02-19T02:42:10;101944.75;;;9.16;100.00
36692;BME280;22678;52.052;4.242;2023-02-19T02:44:51;101942.97;;;9.15;100.00
36692;BME280;22678;52.052;4.242;2023-02-19T02:47:40;101939.41;;;9.10;100.00
36692;BME280;22678;52.052;4.242;2023-02-19T02:50:13;101971.13;;;9.25;100.00
36692;BME280;22678;52.052;4.242;2023-02-19T02:52:40;101969.31;;;9.21;100.00
36692;BME280;22678;52.052;4.242;2023-02-19T02:55:29;101967.56;;;9.20;100.00
36692;BME280;22678;52.052;4.242;2023-02-19T02:57:56;101967.56;;;9.20;100.00
36692;BME280;22678;52.052;4.242;2023-02-19T03:00:23;101962.19;;;9.14;100.00
36692;BME280;22678;52.052;4.242;2023-02-19T03:02:50;101956.06;;;9.12;100.00
36692;BME280;22678;52.052;4.242;2023-02-19T03:05:19;101975.50;;;9.25;100.00
36692;BME280;22678;52.052;4.242;2023-02-19T03:08:10;101982.50;;;9.26;100.00
36692;BME280;22678;52.052;4.242;2023-02-19T03:10:43;101963.06;;;9.11;100.00
36692;BME280;22678;52.052;4.242;2023-02-19T03:13:14;101984.25;;;9.24;100.00
36692;BME280;22678;52.052;4.242;2023-02-19T03:16:11;101987.72;;;9.24;100.00
36692;BME280;22678;52.052;4.242;2023-02-19T03:18:58;101981.50;;;9.16;100.00
36692;BME280;22678;52.052;4.242;2023-02-19T03:21:43;101984.09;;;9.13;100.00
36692;BME280;22678;52.052;4.242;2023-02-19T03:24:11;101983.16;;;9.11;100.00
36692;BME280;22678;52.052;4.242;2023-02-19T03:26:58;101995.50;;;9.17;100.00
36692;BME280;22678;52.052;4.242;2023-02-19T03:29:27;102000.69;;;9.14;100.00
36692;BME280;22678;52.052;4.242;2023-02-19T03:32:14;102017.41;;;9.17;100.00
36692;BME280;22678;52.052;4.242;2023-02-19T03:34:56;102016.41;;;9.12;100.00
36692;BME280;22678;52.052;4.242;2023-02-19T03:37:29;101993.59;;;9.08;100.00
36692;BME280;22678;52.052;4.242;2023-02-19T03:39:56;101982.91;;;8.96;100.00
36692;BME280;22678;52.052;4.242;2023-02-19T03:42:53;102018.25;;;9.16;100.00
36692;BME280;22678;52.052;4.242;2023-02-19T03:45:35;102014.66;;;9.11;100.00
36692;BME280;22678;52.052;4.242;2023-02-19T03:48:21;102025.19;;;9.14;100.00
36692;BME280;22678;52.052;4.242;2023-02-19T03:54:11;102020.63;;;9.02;100.00
36692;BME280;22678;52.052;4.242;2023-02-19T03:56:47;102028.59;;;9.07;100.00
36692;BME280;22678;52.052;4.242;2023-02-19T04:01:51;102036.47;;;9.07;100.00
36692;BME280;22678;52.052;4.242;2023-02-19T04:04:27;102022.31;;;8.99;100.00
36692;BME280;22678;52.052;4.242;2023-02-19T04:06:56;102018.72;;;8.93;100.00
36692;BME280;22678;52.052;4.242;2023-02-19T04:09:24;102009.06;;;8.89;100.00
36692;BME280;22678;52.052;4.242;2023-02-19T04:11:52;101994.81;;;8.75;100.00
36692;BME280;22678;52.052;4.242;2023-02-19T04:16:59;102022.97;;;8.85;100.00
36692;BME280;22678;52.052;4.242;2023-02-19T04:19:26;102044.16;;;8.98;100.00
36692;BME280;22678;52.052;4.242;2023-02-19T04:21:53;102037.06;;;8.93;100.00
36692;BME280;22678;52.052;4.242;2023-02-19T04:24:28;102048.56;;;8.99;100.00
36692;BME280;22678;52.052;4.242;2023-02-19T04:26:56;102030.00;;;8.88;100.00
36692;BME280;22678;52.052;4.242;2023-02-19T04:29:21;102040.59;;;8.92;100.00
36692;BME280;22678;52.052;4.242;2023-02-19T04:31:47;102079.97;;;8.94;100.00
36692;BME280;22678;52.052;4.242;2023-02-19T04:34:12;102056.28;;;8.89;100.00
36692;BME280;22678;52.052;4.242;2023-02-19T04:36:37;102072.06;;;8.92;100.00
36692;BME280;22678;52.052;4.242;2023-02-19T04:39:03;102041.91;;;8.69;100.00
36692;BME280;22678;52.052;4.242;2023-02-19T04:41:28;102055.06;;;8.72;100.00
36692;BME280;22678;52.052;4.242;2023-02-19T04:43:53;102087.72;;;8.88;100.00
36692;BME280;22678;52.052;4.242;2023-02-19T04:46:19;102070.97;;;8.81;100.00
36692;BME280;22678;52.052;4.242;2023-02-19T04:48:44;102077.16;;;8.85;100.00
36692;BME280;22678;52.052;4.242;2023-02-19T04:51:10;102098.25;;;8.89;100.00
36692;BME280;22678;52.052;4.242;2023-02-19T04:53:35;102101.78;;;8.91;100.00
36692;BME280;22678;52.052;4.242;2023-02-19T04:56:09;102103.34;;;8.83;100.00
36692;BME280;22678;52.052;4.242;2023-02-19T04:58:35;102120.97;;;8.90;100.00
36692;BME280;22678;52.052;4.242;2023-02-19T05:01:00;102124.41;;;8.86;100.00
36692;BME280;22678;52.052;4.242;2023-02-19T05:03:26;102104.97;;;8.75;100.00
36692;BME280;22678;52.052;4.242;2023-02-19T05:05:51;102126.16;;;8.87;100.00
36692;BME280;22678;52.052;4.242;2023-02-19T05:08:16;102112.88;;;8.78;100.00
36692;BME280;22678;52.052;4.242;2023-02-19T05:10:42;102139.31;;;8.89;100.00
36692;BME280;22678;52.052;4.242;2023-02-19T05:13:07;102140.22;;;8.89;100.00
36692;BME280;22678;52.052;4.242;2023-02-19T05:15:33;102147.16;;;8.87;100.00
36692;BME280;22678;52.052;4.242;2023-02-19T05:17:58;102150.72;;;8.89;100.00
36692;BME280;22678;52.052;4.242;2023-02-19T05:20:23;102152.44;;;8.89;100.00
36692;BME280;22678;52.052;4.242;2023-02-19T05:22:49;102156.78;;;8.87;100.00
36692;BME280;22678;52.052;4.242;2023-02-19T05:25:14;102150.53;;;8.82;100.00
36692;BME280;22678;52.052;4.242;2023-02-19T05:27:39;102147.88;;;8.80;100.00
36692;BME280;22678;52.052;4.242;2023-02-19T05:30:05;102120.38;;;8.59;100.00
36692;BME280;22678;52.052;4.242;2023-02-19T05:32:30;102155.81;;;8.83;100.00
36692;BME280;22678;52.052;4.242;2023-02-19T05:34:56;102117.81;;;8.63;100.00
36692;BME280;22678;52.052;4.242;2023-02-19T05:37:21;102122.97;;;8.58;100.00
36692;BME280;22678;52.052;4.242;2023-02-19T05:39:47;102154.81;;;8.76;100.00
36692;BME280;22678;52.052;4.242;2023-02-19T05:42:13;102143.47;;;8.76;100.00
36692;BME280;22678;52.052;4.242;2023-02-19T05:44:39;102139.09;;;8.76;100.00
36692;BME280;22678;52.052;4.242;2023-02-19T05:47:05;102140.72;;;8.71;100.00
36692;BME280;22678;52.052;4.242;2023-02-19T05:49:30;102134.47;;;8.65;100.00
36692;BME280;22678;52.052;4.242;2023-02-19T05:51:56;102141.59;;;8.70;100.00
36692;BME280;22678;52.052;4.242;2023-02-19T05:54:21;102140.63;;;8.67;100.00
36692;BME280;22678;52.052;4.242;2023-02-19T05:56:46;102160.75;;;8.68;100.00
36692;BME280;22678;52.052;4.242;2023-02-19T05:59:20;102167.84;;;8.72;100.00
36692;BME280;22678;52.052;4.242;2023-02-19T06:01:47;102168.69;;;8.71;100.00
36692;BME280;22678;52.052;4.242;2023-02-19T06:04:13;102172.13;;;8.68;100.00
36692;BME280;22678;52.052;4.242;2023-02-19T06:06:40;102139.38;;;8.49;100.00
36692;BME280;22678;52.052;4.242;2023-02-19T06:09:07;102171.19;;;8.65;100.00
36692;BME280;22678;52.052;4.242;2023-02-19T06:11:33;102170.28;;;8.64;100.00
36692;BME280;22678;52.052;4.242;2023-02-19T06:13:59;102156.16;;;8.57;100.00
36692;BME280;22678;52.052;4.242;2023-02-19T06:16:24;102185.19;;;8.67;100.00
36692;BME280;22678;52.052;4.242;2023-02-19T06:18:50;102150.75;;;8.48;100.00
36692;BME280;22678;52.052;4.242;2023-02-19T06:21:16;102169.16;;;8.51;100.00
36692;BME280;22678;52.052;4.242;2023-02-19T06:23:42;102196.56;;;8.66;100.00
36692;BME280;22678;52.052;4.242;2023-02-19T06:26:12;102195.69;;;8.67;100.00
36692;BME280;22678;52.052;4.242;2023-02-19T06:28:38;102192.22;;;8.68;100.00
36692;BME280;22678;52.052;4.242;2023-02-19T06:31:05;102200.06;;;8.66;100.00
36692;BME280;22678;52.052;4.242;2023-02-19T06:33:31;102186.72;;;8.55;100.00
36692;BME280;22678;52.052;4.242;2023-02-19T06:36:01;102198.28;;;8.65;100.00
36692;BME280;22678;52.052;4.242;2023-02-19T06:38:27;102206.13;;;8.64;100.00
36692;BME280;22678;52.052;4.242;2023-02-19T06:40:53;102187.47;;;8.50;100.00
36692;BME280;22678;52.052;4.242;2023-02-19T06:43:18;102201.72;;;8.63;100.00
36692;BME280;22678;52.052;4.242;2023-02-19T06:45:44;102211.38;;;8.64;100.00
36692;BME280;22678;52.052;4.242;2023-02-19T06:48:09;102204.34;;;8.63;100.00
36692;BME280;22678;52.052;4.242;2023-02-19T06:50:35;102185.69;;;8.49;100.00
36692;BME280;22678;52.052;4.242;2023-02-19T06:53:00;102198.91;;;8.53;100.00
36692;BME280;22678;52.052;4.242;2023-02-19T06:55:25;102198.91;;;8.53;100.00
36692;BME280;22678;52.052;4.242;2023-02-19T06:57:51;102224.47;;;8.64;100.00
36692;BME280;22678;52.052;4.242;2023-02-19T07:00:16;102197.88;;;8.45;100.00
36692;BME280;22678;52.052;4.242;2023-02-19T07:02:42;102223.50;;;8.58;100.00
36692;BME280;22678;52.052;4.242;2023-02-19T07:05:07;102221.63;;;8.53;100.00
36692;BME280;22678;52.052;4.242;2023-02-19T07:07:32;102223.41;;;8.54;100.00
36692;BME280;22678;52.052;4.242;2023-02-19T07:09:57;102204.72;;;8.41;100.00
36692;BME280;22678;52.052;4.242;2023-02-19T07:12:23;102219.78;;;8.49;100.00
36692;BME280;22678;52.052;4.242;2023-02-19T07:14:48;102248.84;;;8.59;100.00
36692;BME280;22678;52.052;4.242;2023-02-19T07:17:13;102247.94;;;8.57;100.00
36692;BME280;22678;52.052;4.242;2023-02-19T07:19:39;102237.31;;;8.51;100.00
36692;BME280;22678;52.052;4.242;2023-02-19T07:22:04;102248.75;;;8.55;100.00
36692;BME280;22678;52.052;4.242;2023-02-19T07:24:29;102271.53;;;8.57;100.00
36692;BME280;22678;52.052;4.242;2023-02-19T07:26:54;102271.63;;;8.61;100.00
36692;BME280;22678;52.052;4.242;2023-02-19T07:29:20;102274.19;;;8.59;100.00
36692;BME280;22678;52.052;4.242;2023-02-19T07:31:45;102293.53;;;8.64;100.00
36692;BME280;22678;52.052;4.242;2023-02-19T07:34:11;102281.97;;;8.54;100.00
36692;BME280;22678;52.052;4.242;2023-02-19T07:36:36;102262.44;;;8.43;100.00
36692;BME280;22678;52.052;4.242;2023-02-19T07:39:02;102266.88;;;8.44;100.00
36692;BME280;22678;52.052;4.242;2023-02-19T07:41:27;102279.13;;;8.45;100.00
36692;BME280;22678;52.052;4.242;2023-02-19T07:43:53;102292.41;;;8.53;100.00
36692;BME280;22678;52.052;4.242;2023-02-19T07:46:18;102307.44;;;8.60;100.00
36692;BME280;22678;52.052;4.242;2023-02-19T07:48:44;102325.06;;;8.66;100.00
36692;BME280;22678;52.052;4.242;2023-02-19T07:51:12;102302.84;;;8.50;100.00
36692;BME280;22678;52.052;4.242;2023-02-19T07:53:38;102312.50;;;8.52;100.00
36692;BME280;22678;52.052;4.242;2023-02-19T07:56:05;102338.88;;;8.58;100.00
36692;BME280;22678;52.052;4.242;2023-02-19T07:58:32;102345.81;;;8.56;100.00
36692;BME280;22678;52.052;4.242;2023-02-19T08:01:05;102334.38;;;8.53;100.00
36692;BME280;22678;52.052;4.242;2023-02-19T08:03:31;102343.19;;;8.56;100.00
36692;BME280;22678;52.052;4.242;2023-02-19T08:05:56;102333.56;;;8.55;100.00
36692;BME280;22678;52.052;4.242;2023-02-19T08:08:21;102357.41;;;8.66;100.00
36692;BME280;22678;52.052;4.242;2023-02-19T08:10:47;102364.47;;;8.69;100.00
36692;BME280;22678;52.052;4.242;2023-02-19T08:13:31;102361.81;;;8.67;100.00
36692;BME280;22678;52.052;4.242;2023-02-19T08:18:27;102362.72;;;8.69;100.00
36692;BME280;22678;52.052;4.242;2023-02-19T08:20:53;102365.38;;;8.71;100.00
36692;BME280;22678;52.052;4.242;2023-02-19T08:23:19;102358.28;;;8.67;100.00
36692;BME280;22678;52.052;4.242;2023-02-19T08:25:48;102351.28;;;8.66;100.00
36692;BME280;22678;52.052;4.242;2023-02-19T08:28:14;102372.56;;;8.78;100.00
36692;BME280;22678;52.052;4.242;2023-02-19T08:30:41;102367.31;;;8.78;100.00
36692;BME280;22678;52.052;4.242;2023-02-19T08:33:09;102356.84;;;8.80;100.00
36692;BME280;22678;52.052;4.242;2023-02-19T08:35:35;102361.06;;;8.73;100.00
36692;BME280;22678;52.052;4.242;2023-02-19T08:38:01;102351.38;;;8.69;100.00
36692;BME280;22678;52.052;4.242;2023-02-19T08:40:26;102355.75;;;8.70;100.00
36692;BME280;22678;52.052;4.242;2023-02-19T08:42:52;102378.66;;;8.77;100.00
36692;BME280;22678;52.052;4.242;2023-02-19T08:45:17;102389.28;;;8.83;100.00
36692;BME280;22678;52.052;4.242;2023-02-19T08:47:43;102374.28;;;8.76;100.00
36692;BME280;22678;52.052;4.242;2023-02-19T08:50:09;102377.94;;;8.84;100.00
36692;BME280;22678;52.052;4.242;2023-02-19T08:52:34;102374.41;;;8.82;100.00
36692;BME280;22678;52.052;4.242;2023-02-19T08:55:01;102369.22;;;8.85;100.00
36692;BME280;22678;52.052;4.242;2023-02-19T08:57:27;102348.94;;;8.78;100.00
36692;BME280;22678;52.052;4.242;2023-02-19T08:59:54;102345.69;;;8.88;100.00
36692;BME280;22678;52.052;4.242;2023-02-19T09:02:20;102353.75;;;8.98;100.00
36692;BME280;22678;52.052;4.242;2023-02-19T09:04:46;102340.09;;;9.12;100.00
36692;BME280;22678;52.052;4.242;2023-02-19T09:12:14;102390.63;;;9.86;100.00
36692;BME280;22678;52.052;4.242;2023-02-19T09:14:39;102348.19;;;9.64;99.23
36692;BME280;22678;52.052;4.242;2023-02-19T09:17:06;102399.56;;;9.94;98.65
36692;BME280;22678;52.052;4.242;2023-02-19T09:19:32;102402.06;;;9.88;98.20
36692;BME280;22678;52.052;4.242;2023-02-19T09:21:57;102371.75;;;9.60;98.10
36692;BME280;22678;52.052;4.242;2023-02-19T09:24:23;102389.00;;;9.49;98.07
36692;BME280;22678;52.052;4.242;2023-02-19T09:26:52;102439.25;;;9.65;97.12
36692;BME280;22678;52.052;4.242;2023-02-19T09:29:18;102439.97;;;9.58;96.56
36692;BME280;22678;52.052;4.242;2023-02-19T09:31:44;102413.13;;;9.31;96.64
36692;BME280;22678;52.052;4.242;2023-02-19T09:34:10;102434.16;;;9.32;96.68
36692;BME280;22678;52.052;4.242;2023-02-19T09:36:36;102415.44;;;9.17;96.31
36692;BME280;22678;52.052;4.242;2023-02-19T09:39:02;102463.09;;;9.34;96.14
36692;BME280;22678;52.052;4.242;2023-02-19T09:41:33;102471.72;;;9.29;95.83
36692;BME280;22678;52.052;4.242;2023-02-19T09:44:01;102431.78;;;9.05;94.98
36692;BME280;22678;52.052;4.242;2023-02-19T09:46:31;102446.53;;;9.00;94.76
36692;BME280;22678;52.052;4.242;2023-02-19T09:49:04;102487.31;;;9.22;94.74
36692;BME280;22678;52.052;4.242;2023-02-19T09:51:33;102480.13;;;9.15;94.07
36692;BME280;22678;52.052;4.242;2023-02-19T09:54:01;102483.63;;;9.15;92.67
36692;BME280;22678;52.052;4.242;2023-02-19T09:56:28;102490.59;;;9.13;92.33
36692;BME280;22678;52.052;4.242;2023-02-19T09:58:56;102473.81;;;9.06;91.91
36692;BME280;22678;52.052;4.242;2023-02-19T10:01:25;102468.50;;;9.05;92.48
36692;BME280;22678;52.052;4.242;2023-02-19T10:03:52;102482.59;;;9.07;93.05
36692;BME280;22678;52.052;4.242;2023-02-19T10:06:20;102490.66;;;9.16;93.30
36692;BME280;22678;52.052;4.242;2023-02-19T10:08:49;102507.28;;;9.17;92.99
36692;BME280;22678;52.052;4.242;2023-02-19T10:11:15;102491.31;;;9.07;93.27
36692;BME280;22678;52.052;4.242;2023-02-19T10:13:44;102503.75;;;9.15;93.63
36692;BME280;22678;52.052;4.242;2023-02-19T10:16:14;102495.78;;;9.10;93.88
36692;BME280;22678;52.052;4.242;2023-02-19T10:18:43;102503.72;;;9.13;94.28
36692;BME280;22678;52.052;4.242;2023-02-19T10:21:18;102528.28;;;9.17;94.08
36692;BME280;22678;52.052;4.242;2023-02-19T10:23:44;102522.03;;;9.10;94.05
36692;BME280;22678;52.052;4.242;2023-02-19T10:26:11;102530.88;;;9.15;93.82
36692;BME280;22678;52.052;4.242;2023-02-19T10:28:36;102512.28;;;9.06;92.91
36692;BME280;22678;52.052;4.242;2023-02-19T10:31:04;102524.47;;;9.04;93.42
36692;BME280;22678;52.052;4.242;2023-02-19T10:33:31;102516.59;;;9.04;93.03
36692;BME280;22678;52.052;4.242;2023-02-19T10:36:03;102530.81;;;9.12;92.63
36692;BME280;22678;52.052;4.242;2023-02-19T10:38:38;102515.78;;;9.06;92.58
36692;BME280;22678;52.052;4.242;2023-02-19T10:41:12;102524.88;;;9.19;91.35
36692;BME280;22678;52.052;4.242;2023-02-19T10:43:42;102534.59;;;9.23;91.33
36692;BME280;22678;52.052;4.242;2023-02-19T10:46:21;102532.94;;;9.28;91.28
36692;BME280;22678;52.052;4.242;2023-02-19T10:49:03;102528.47;;;9.24;91.29
36692;BME280;22678;52.052;4.242;2023-02-19T10:54:27;102532.19;;;9.33;91.59
36692;BME280;22678;52.052;4.242;2023-02-19T11:02:17;102525.97;;;9.29;92.51
36692;BME280;22678;52.052;4.242;2023-02-19T11:07:26;102532.16;;;9.31;92.86
36692;BME280;22678;52.052;4.242;2023-02-19T11:09:52;102522.44;;;9.28;93.07
36692;BME280;22678;52.052;4.242;2023-02-19T11:12:29;102515.53;;;9.31;92.61
36692;BME280;22678;52.052;4.242;2023-02-19T11:14:55;102534.00;;;9.35;92.57
36692;BME280;22678;52.052;4.242;2023-02-19T11:17:25;102529.69;;;9.39;92.97
36692;BME280;22678;52.052;4.242;2023-02-19T11:19:54;102529.69;;;9.39;93.10
36692;BME280;22678;52.052;4.242;2023-02-19T11:22:36;102535.84;;;9.39;93.22
36692;BME280;22678;52.052;4.242;2023-02-19T11:25:16;102545.44;;;9.39;92.76
36692;BME280;22678;52.052;4.242;2023-02-19T11:27:56;102539.00;;;9.26;92.09
36692;BME280;22678;52.052;4.242;2023-02-19T11:33:24;102527.56;;;9.22;93.17
36692;BME280;22678;52.052;4.242;2023-02-19T11:35:57;102533.75;;;9.26;93.58
36692;BME280;22678;52.052;4.242;2023-02-19T11:38:24;102534.75;;;9.29;94.09
36692;BME280;22678;52.052;4.242;2023-02-19T11:41:05;102541.22;;;9.44;94.32
36692;BME280;22678;52.052;4.242;2023-02-19T11:44:20;102530.13;;;9.57;94.91
36692;BME280;22678;52.052;4.242;2023-02-19T11:47:27;102535.66;;;9.70;95.13
36692;BME280;22678;52.052;4.242;2023-02-19T11:50:05;102543.91;;;9.85;94.92
36692;BME280;22678;52.052;4.242;2023-02-19T12:00:54;102542.38;;;10.38;94.01
36692;BME280;22678;52.052;4.242;2023-02-19T12:03:46;102565.44;;;10.51;93.55
36692;BME280;22678;52.052;4.242;2023-02-19T12:06:26;102583.06;;;10.55;93.26
36692;BME280;22678;52.052;4.242;2023-02-19T12:09:13;102575.13;;;10.54;92.89
36692;BME280;22678;52.052;4.242;2023-02-19T12:11:59;102579.47;;;10.50;92.52
36692;BME280;22678;52.052;4.242;2023-02-19T12:22:32;102582.72;;;10.38;92.22
36692;BME280;22678;52.052;4.242;2023-02-19T12:30:39;102599.16;;;10.28;91.71
36692;BME280;22678;52.052;4.242;2023-02-19T12:35:47;102611.22;;;10.20;91.65
36692;BME280;22678;52.052;4.242;2023-02-19T12:38:29;102609.44;;;10.18;91.88
36692;BME280;22678;52.052;4.242;2023-02-19T12:41:19;102612.88;;;10.14;91.67
36692;BME280;22678;52.052;4.242;2023-02-19T12:43:57;102624.06;;;10.06;91.37
36692;BME280;22678;52.052;4.242;2023-02-19T12:46:34;102618.53;;;9.93;91.47
36692;BME280;22678;52.052;4.242;2023-02-19T12:52:00;102627.19;;;9.89;91.50
36692;BME280;22678;52.052;4.242;2023-02-19T12:54:28;102632.34;;;9.85;91.11
36692;BME280;22678;52.052;4.242;2023-02-19T12:57:11;102634.91;;;9.81;91.01
36692;BME280;22678;52.052;4.242;2023-02-19T13:05:07;102649.78;;;9.81;92.27
36692;BME280;22678;52.052;4.242;2023-02-19T13:07:43;102655.88;;;9.80;91.99
36692;BME280;22678;52.052;4.242;2023-02-19T13:12:37;102658.50;;;9.80;92.15
36692;BME280;22678;52.052;4.242;2023-02-19T13:17:55;102642.59;;;9.74;92.39
36692;BME280;22678;52.052;4.242;2023-02-19T13:20:25;102653.28;;;9.81;92.58
36692;BME280;22678;52.052;4.242;2023-02-19T13:23:27;102658.66;;;9.86;92.74
36692;BME280;22678;52.052;4.242;2023-02-19T13:32:51;102678.00;;;9.88;92.55
36692;BME280;22678;52.052;4.242;2023-02-19T13:34:52;102683.16;;;9.85;92.66
36692;BME280;22678;52.052;4.242;2023-02-19T13:37:21;102675.22;;;9.82;92.91
36692;BME280;22678;52.052;4.242;2023-02-19T13:39:51;102683.00;;;9.79;92.82
36692;BME280;22678;52.052;4.242;2023-02-19T13:42:25;102674.06;;;9.71;92.40
36692;BME280;22678;52.052;4.242;2023-02-19T13:44:52;102692.53;;;9.74;92.85
36692;BME280;22678;52.052;4.242;2023-02-19T13:48:38;102693.31;;;9.71;92.66
36692;BME280;22678;52.052;4.242;2023-02-19T13:50:32;102703.78;;;9.70;92.64
36692;BME280;22678;52.052;4.242;2023-02-19T13:56:01;102696.69;;;9.65;92.64
36692;BME280;22678;52.052;4.242;2023-02-19T14:01:00;102712.78;;;9.78;93.25
36692;BME280;22678;52.052;4.242;2023-02-19T14:03:28;102706.75;;;9.82;93.09
36692;BME280;22678;52.052;4.242;2023-02-19T14:06:00;102693.75;;;9.88;93.02
36692;BME280;22678;52.052;4.242;2023-02-19T14:08:46;102694.63;;;9.89;92.74
36692;BME280;22678;52.052;4.242;2023-02-19T14:11:12;102690.03;;;9.80;92.49
36692;BME280;22678;52.052;4.242;2023-02-19T14:16:49;102698.94;;;9.85;92.23
36692;BME280;22678;52.052;4.242;2023-02-19T14:28:40;102711.13;;;9.83;92.40
36692;BME280;22678;52.052;4.242;2023-02-19T14:30:47;102693.75;;;9.88;92.22
36692;BME280;22678;52.052;4.242;2023-02-19T14:33:20;102690.25;;;9.89;91.93
36692;BME280;22678;52.052;4.242;2023-02-19T14:35:48;102685.16;;;9.95;91.91
36692;BME280;22678;52.052;4.242;2023-02-19T14:38:23;102684.50;;;10.04;92.14
36692;BME280;22678;52.052;4.242;2023-02-19T14:40:50;102685.50;;;10.11;91.93
36692;BME280;22678;52.052;4.242;2023-02-19T14:43:18;102686.53;;;10.16;91.63
36692;BME280;22678;52.052;4.242;2023-02-19T14:45:54;102681.28;;;10.16;91.37
36692;BME280;22678;52.052;4.242;2023-02-19T14:48:24;102679.63;;;10.21;91.02
36692;BME280;22678;52.052;4.242;2023-02-19T14:50:56;102670.09;;;10.26;91.16